Gravel Hill, Arkansas
Current Conditions -  °F | °C
As of 6:56 PM on Sunday 21 Dec 2014 (Local Time) from KSRC Reporting Station
Overcast Overcast  
Wind Chill: 45°   Ceiling: 8000
Heat Index: 48°   Visibility: 10mi
Dew Point: 37°   Wind: 7mph
Humidity: 66%   Direction: 110°ESE
Pressure: 29.98"   Gusts: NA
Location:  35.2212°N, 92.068°W
Report Text: KSRC 220056Z AUTO 11006KT 10SM OVC080 09/03 A2998 RMK AO2 SLP158 T00890028 TSNO
Loading
Personal Weather Stations






























Interactive Weather Map New forecast layout! Learn more

10-Day Weather Forecast

Advertisements
Track Severe Weather on mobile